EBML weather

Maillen Ulmodrome
Assesse, Namur, Belgium

Public forecast

Using degrees Celsius for public forecast. Weather courtesy of forecast.io.

METAR (pilot weather report)

Closest report is Florennes Air Base, 13.4 nm (24.8 km) SW. Retrieved 2019/04/26 16:25 UTC (2 minutes ago):

EBFS 261625Z 19012KT 9999 FEW042 14/05 Q1014 BLU BLU

TAF (pilot weather forecast)

Forecast is more than 12 hours old.

Closest forecast is Florennes Air Base, 13.4 nm (24.8 km) SW. Retrieved 2019/03/21 19:00 UTC (1 month ago):

TAF EBFS 211541Z 2119/2207 02004KT 9999 FEW270 BECMG 2203/2205 09003KT 5000 BR SCT250 TEMPO 2204/2207 3000 BR PROB30 TEMPO 2205/2207 VRB01KT 1500 MIFG